createdAt,value
2018-09-15T00:00:37.283Z,90.56
2018-09-15T00:01:47.413Z,90.17
2018-09-15T00:02:57.266Z,89.7
2018-09-15T00:04:07.119Z,89.32
2018-09-15T00:05:16.974Z,89.41
2018-09-15T00:06:27.107Z,88.75
2018-09-15T00:07:36.973Z,88.56
2018-09-15T00:08:46.824Z,88.18
2018-09-15T00:09:56.955Z,87.89
2018-09-15T00:11:06.540Z,88.37
2018-09-15T00:12:16.124Z,86.84
2018-09-15T00:13:26.260Z,87.03
2018-09-15T00:14:36.392Z,87.6
2018-09-15T00:15:45.697Z,87.03
2018-09-15T00:16:55.607Z,87.13
2018-09-15T00:18:05.468Z,87.23
2018-09-15T00:19:15.601Z,86.99
2018-09-15T00:20:25.482Z,86.8
2018-09-15T00:21:35.627Z,86.51
2018-09-15T00:22:45.823Z,86.61
2018-09-15T00:23:56.047Z,86.13
2018-09-15T00:25:06.189Z,86.7
2018-09-15T00:26:16.059Z,86.7
2018-09-15T00:27:26.190Z,86.8
2018-09-15T00:28:36.373Z,87.08
2018-09-15T00:29:46.506Z,87.56
2018-09-15T00:30:56.363Z,87.75
2018-09-15T00:32:06.511Z,86.9
2018-09-15T00:33:16.096Z,87.27
2018-09-15T00:34:26.014Z,87.56
2018-09-15T00:35:36.144Z,87.27
2018-09-15T00:36:46.005Z,87.46
2018-09-15T00:37:55.865Z,86.8
2018-09-15T00:39:05.906Z,87.37
2018-09-15T00:40:16.184Z,88.09
2018-09-15T00:41:26.314Z,88.51
2018-09-15T00:42:36.444Z,88.56
2018-09-15T00:43:46.295Z,88.37
2018-09-15T00:44:56.419Z,87.94
2018-09-15T00:46:06.327Z,88.18
2018-09-15T00:47:16.454Z,87.99
2018-09-15T00:48:26.316Z,87.42
2018-09-15T00:49:35.895Z,87.04
2018-09-15T00:50:46.024Z,87.13
2018-09-15T00:51:56.144Z,87.13
2018-09-15T00:53:05.999Z,87.32
2018-09-15T00:54:16.128Z,87.04
2018-09-15T00:55:25.985Z,87.13
2018-09-15T00:56:36.111Z,86.66
2018-09-15T00:57:46.343Z,86.66
2018-09-15T00:58:56.194Z,85.99
2018-09-15T01:00:05.769Z,85.8
2018-09-15T01:01:15.900Z,86.18
2018-09-15T01:02:25.750Z,86.28
2018-09-15T01:03:35.929Z,86.18
2018-09-15T01:04:46.048Z,86.09
2018-09-15T01:05:55.896Z,86.09
2018-09-15T01:07:06.023Z,85.99
2018-09-15T01:08:15.884Z,86.47
2018-09-15T01:09:26.017Z,86.66
2018-09-15T01:10:35.323Z,85.9
2018-09-15T01:11:45.450Z,86.38
2018-09-15T01:12:55.026Z,86.28
2018-09-15T01:14:05.045Z,86.66
2018-09-15T01:15:15.674Z,85.99
2018-09-15T01:16:25.532Z,86.38
2018-09-15T01:17:35.385Z,86.28
2018-09-15T01:18:45.508Z,87.13
2018-09-15T01:19:55.710Z,86.99
2018-09-15T01:21:06.134Z,86.9
2018-09-15T01:22:16.263Z,86.99
2018-09-15T01:23:25.854Z,86.9
2018-09-15T01:24:35.704Z,86.9
2018-09-15T01:25:45.828Z,87.09
2018-09-15T01:26:56.067Z,86.43
2018-09-15T01:28:06.198Z,86.99
2018-09-15T01:29:16.049Z,86.71
2018-09-15T01:30:26.173Z,86.71
2018-09-15T01:31:35.752Z,87.09
2018-09-15T01:32:45.617Z,87.19
2018-09-15T01:33:55.468Z,87.76
2018-09-15T01:35:05.328Z,87.95
2018-09-15T01:36:14.627Z,88.42
2018-09-15T01:37:24.756Z,88.42
2018-09-15T01:38:34.885Z,89.28
2018-09-15T01:39:45.023Z,89.28
2018-09-15T01:40:54.606Z,89.28
2018-09-15T01:42:04.755Z,89.33
2018-09-15T01:43:14.609Z,89.61
2018-09-15T01:44:24.789Z,90
2018-09-15T01:45:34.912Z,90
2018-09-15T01:46:45.037Z,90
2018-09-15T01:47:55.160Z,89.61
2018-09-15T01:49:04.736Z,89.33
2018-09-15T01:50:14.913Z,89.14
2018-09-15T01:51:25.033Z,89.04
2018-09-15T01:52:34.881Z,88
2018-09-15T01:53:45.012Z,88.38
2018-09-15T01:54:54.861Z,88
2018-09-15T01:56:04.494Z,88
2018-09-15T01:57:14.619Z,87.43
2018-09-15T01:58:24.779Z,87.43
2018-09-15T01:59:34.639Z,87.62
2018-09-15T02:00:44.506Z,87.9
2018-09-15T02:01:54.410Z,88
2018-09-15T02:03:04.263Z,87.62
2018-09-15T02:04:14.164Z,88
2018-09-15T02:05:24.287Z,88.28
2018-09-15T02:06:34.414Z,88.67
2018-09-15T02:07:44.264Z,88.85
2018-09-15T02:08:54.115Z,89.14
2018-09-15T02:10:03.965Z,89.14
2018-09-15T02:11:14.089Z,89.52
2018-09-15T02:12:24.220Z,90.19
2018-09-15T02:13:34.076Z,89.8
2018-09-15T02:14:43.928Z,90
2018-09-15T02:15:53.236Z,89.8
2018-09-15T02:17:03.083Z,90.19
2018-09-15T02:18:13.216Z,90.28
2018-09-15T02:19:23.491Z,90.37
2018-09-15T02:20:33.629Z,90.37
2018-09-15T02:21:43.757Z,90.71
2018-09-15T02:22:54.033Z,90.37
2018-09-15T02:24:04.212Z,90.37
2018-09-15T02:25:14.382Z,90.14
2018-09-15T02:26:24.505Z,90.05
2018-09-15T02:27:34.364Z,89.86
2018-09-15T02:28:43.940Z,89.9
2018-09-15T02:29:53.862Z,90.28
2018-09-15T02:31:03.721Z,90.05
2018-09-15T02:32:13.852Z,90.33
2018-09-15T02:33:23.704Z,90.14
2018-09-15T02:34:33.834Z,90.33
2018-09-15T02:35:43.968Z,90.14
2018-09-15T02:36:54.141Z,90.23
2018-09-15T02:38:04.277Z,90.23
2018-09-15T02:39:13.857Z,89.47
2018-09-15T02:40:23.722Z,89.47
2018-09-15T02:41:33.854Z,89.28
2018-09-15T02:42:44.037Z,89.52
2018-09-15T02:43:54.162Z,89.52
2018-09-15T02:45:04.025Z,89.33
2018-09-15T02:46:13.884Z,89.14
2018-09-15T02:47:24.027Z,89.42
2018-09-15T02:48:34.205Z,89.47
2018-09-15T02:49:44.330Z,89.95
2018-09-15T02:50:54.463Z,89.57
2018-09-15T02:52:04.316Z,89.76
2018-09-15T02:53:14.454Z,89.47
2018-09-15T02:54:24.319Z,89
2018-09-15T02:55:34.206Z,88.62
2018-09-15T02:56:44.329Z,88.71
2018-09-15T02:57:54.195Z,88.15
2018-09-15T02:59:04.055Z,88.43
2018-09-15T03:00:13.952Z,87.86
2018-09-15T03:01:23.818Z,87.67
2018-09-15T03:02:33.401Z,88.15
2018-09-15T03:03:43.531Z,87.29
2018-09-15T03:04:53.666Z,87.29
2018-09-15T03:06:03.520Z,86.76
2018-09-15T03:07:13.656Z,87.19
2018-09-15T03:08:23.530Z,86.82
2018-09-15T03:09:33.108Z,87.01
2018-09-15T03:10:43.450Z,86.1
2018-09-15T03:11:53.629Z,85.91
2018-09-15T03:13:03.482Z,86.63
2018-09-15T03:14:13.617Z,86.67
2018-09-15T03:15:23.487Z,86.76
2018-09-15T03:16:33.616Z,86.1
2018-09-15T03:17:43.525Z,86.57
2018-09-15T03:18:53.663Z,86.67
2018-09-15T03:20:03.522Z,86.72
2018-09-15T03:21:13.650Z,87.76
2018-09-15T03:22:23.525Z,87.95
2018-09-15T03:23:33.381Z,88.24
2018-09-15T03:24:43.510Z,88.43
2018-09-15T03:25:53.088Z,88.34
2018-09-15T03:27:03.217Z,88.43
2018-09-15T03:28:13.066Z,88.05
2018-09-15T03:29:23.252Z,88.53
2018-09-15T03:30:33.125Z,88.71
2018-09-15T03:31:43.267Z,88.81
2018-09-15T03:32:52.858Z,89.19
2018-09-15T03:34:02.992Z,89
2018-09-15T03:35:13.166Z,89.09
2018-09-15T03:36:23.301Z,88.71
2018-09-15T03:37:33.157Z,89.09
2018-09-15T03:38:43.007Z,88.05
2018-09-15T03:39:53.135Z,88.15
2018-09-15T03:41:02.989Z,88.53
2018-09-15T03:42:13.117Z,88.34
2018-09-15T03:43:23.251Z,89.19
2018-09-15T03:44:33.380Z,88.9
2018-09-15T03:45:43.233Z,89.19
2018-09-15T03:46:53.411Z,90.14
2018-09-15T03:48:03.537Z,90.05
2018-09-15T03:49:13.675Z,89.67
2018-09-15T03:50:22.976Z,89.67
2018-09-15T03:51:33.101Z,90.05
2018-09-15T03:52:43.229Z,89.76
2018-09-15T03:53:53.360Z,90.14
2018-09-15T03:55:03.491Z,90.23
2018-09-15T03:56:13.620Z,90.23
2018-09-15T03:57:23.481Z,89.86
2018-09-15T03:58:33.680Z,90.14
2018-09-15T03:59:43.800Z,89.76
2018-09-15T04:00:54.056Z,89.28
2018-09-15T04:02:03.657Z,89.28
2018-09-15T04:03:13.829Z,89
2018-09-15T04:04:24.011Z,88.62
2018-09-15T04:05:33.878Z,88.81
2018-09-15T04:06:44.012Z,88.34
2018-09-15T04:07:54.151Z,88.34
2018-09-15T04:09:04.000Z,88.81
2018-09-15T04:10:14.132Z,88.62
2018-09-15T04:11:24.259Z,88.62
2018-09-15T04:12:34.391Z,89.38
2018-09-15T04:13:44.243Z,89.14
2018-09-15T04:14:54.367Z,89.43
2018-09-15T04:16:03.994Z,89
2018-09-15T04:17:14.123Z,89.67
2018-09-15T04:18:23.701Z,89.67
2018-09-15T04:19:33.553Z,89.9
2018-09-15T04:20:42.861Z,89.81
2018-09-15T04:21:52.456Z,89.81
2018-09-15T04:23:02.591Z,90.09
2018-09-15T04:24:12.725Z,89.72
2018-09-15T04:25:22.868Z,90
2018-09-15T04:26:32.737Z,89.72
2018-09-15T04:27:42.974Z,89.9
2018-09-15T04:28:52.557Z,89.9
2018-09-15T04:30:02.693Z,90.19
2018-09-15T04:31:12.270Z,90.66
2018-09-15T04:32:22.394Z,91.24
2018-09-15T04:33:32.571Z,91.04
2018-09-15T04:34:42.727Z,91.33
2018-09-15T04:35:52.852Z,91.52
2018-09-15T04:37:02.708Z,91.8
2018-09-15T04:38:12.832Z,92.28
2018-09-15T04:39:22.738Z,92.18
2018-09-15T04:40:32.891Z,92.37
2018-09-15T04:41:43.187Z,92.28
2018-09-15T04:42:53.365Z,92.75
2018-09-15T04:44:03.251Z,92.56
2018-09-15T04:45:13.151Z,92.47
2018-09-15T04:46:23.009Z,92.37
2018-09-15T04:47:32.858Z,92.66
2018-09-15T04:48:42.721Z,92.28
2018-09-15T04:49:52.853Z,92.56
2018-09-15T04:51:03.026Z,92.56
2018-09-15T04:52:12.898Z,92.85
2018-09-15T04:53:23.025Z,93.32
2018-09-15T04:54:33.150Z,93.04
2018-09-15T04:55:43.005Z,93.13
2018-09-15T04:56:52.637Z,93.13
2018-09-15T04:58:02.488Z,92.94
2018-09-15T04:59:12.343Z,93.04
2018-09-15T05:00:22.474Z,92.85
2018-09-15T05:01:32.058Z,92.85
2018-09-15T05:02:42.238Z,92.47
2018-09-15T05:03:52.091Z,91.99
2018-09-15T05:05:02.223Z,92.09
2018-09-15T05:06:12.347Z,92.09
2018-09-15T05:07:22.473Z,92.09
2018-09-15T05:08:32.655Z,92.18
2018-09-15T05:09:42.229Z,91.52
2018-09-15T05:10:52.367Z,91.61
2018-09-15T05:12:02.492Z,92.09
2018-09-15T05:13:12.623Z,91.52
2018-09-15T05:14:22.524Z,91.52
2018-09-15T05:15:32.655Z,91.14
2018-09-15T05:16:42.577Z,91.14
2018-09-15T05:17:52.716Z,91.33
2018-09-15T05:19:02.291Z,91.47
2018-09-15T05:20:11.922Z,91.66
2018-09-15T05:21:22.045Z,91.09
2018-09-15T05:22:31.624Z,91.19
2018-09-15T05:23:41.750Z,90.66
2018-09-15T05:24:51.883Z,90.33
2018-09-15T05:26:02.053Z,91.09
2018-09-15T05:27:11.627Z,90.33
2018-09-15T05:28:21.476Z,90.8
2018-09-15T05:29:31.326Z,90.8
2018-09-15T05:30:41.456Z,91.09
2018-09-15T05:31:51.354Z,91.19
2018-09-15T05:33:01.211Z,90.61
2018-09-15T05:34:11.337Z,91.47
2018-09-15T05:35:21.190Z,91.38
2018-09-15T05:36:31.321Z,91.47
2018-09-15T05:37:41.500Z,91.56
2018-09-15T05:38:51.351Z,91.66
2018-09-15T05:40:01.475Z,91.19
2018-09-15T05:41:11.228Z,90.99
2018-09-15T05:42:20.808Z,91.28
2018-09-15T05:43:30.711Z,90.99
2018-09-15T05:44:40.837Z,91.09
2018-09-15T05:45:50.960Z,90.52
2018-09-15T05:47:00.539Z,90.33
2018-09-15T05:48:10.667Z,90.33
2018-09-15T05:49:20.842Z,90.14
2018-09-15T05:50:30.441Z,89.76
2018-09-15T05:51:40.571Z,89.57
2018-09-15T05:52:50.423Z,88.53
2018-09-15T05:54:00.545Z,88.71
2018-09-15T05:55:10.178Z,88.53
2018-09-15T05:56:20.326Z,88.76
2018-09-15T05:57:30.179Z,88.38
2018-09-15T05:58:40.026Z,88.57
2018-09-15T05:59:50.151Z,88.28
2018-09-15T06:01:00.327Z,87.9
2018-09-15T06:02:10.276Z,87.52
2018-09-15T06:03:20.420Z,87.52
2018-09-15T06:04:30.548Z,88
2018-09-15T06:05:40.419Z,87.43
2018-09-15T06:06:50.408Z,87.43
2018-09-15T06:08:00.443Z,86.76
2018-09-15T06:09:10.290Z,87.24
2018-09-15T06:10:20.145Z,87.62
2018-09-15T06:11:29.997Z,87.14
2018-09-15T06:12:39.952Z,87.62
2018-09-15T06:13:50.279Z,87.62
2018-09-15T06:15:00.277Z,87.24
2018-09-15T06:16:10.131Z,86.67
2018-09-15T06:17:19.980Z,87.05
2018-09-15T06:18:29.891Z,86
2018-09-15T06:19:39.475Z,86.8
2018-09-15T06:20:49.336Z,86.05
2018-09-15T06:21:59.193Z,86.9
2018-09-15T06:23:09.051Z,86.52
2018-09-15T06:24:18.684Z,86.61
2018-09-15T06:25:28.538Z,86.33
2018-09-15T06:26:38.662Z,85.95
2018-09-15T06:27:48.515Z,85.66
2018-09-15T06:28:58.364Z,85.57
2018-09-15T06:30:08.556Z,84.81
2018-09-15T06:31:18.409Z,85.57
2018-09-15T06:32:28.535Z,85.19
2018-09-15T06:33:38.399Z,85.1
2018-09-15T06:34:48.524Z,84.81
2018-09-15T06:35:58.435Z,84.62
2018-09-15T06:37:08.565Z,85.38
2018-09-15T06:38:18.689Z,84.33
2018-09-15T06:39:28.649Z,84.24
2018-09-15T06:40:38.840Z,83.52
2018-09-15T06:41:48.692Z,84.09
2018-09-15T06:42:58.819Z,84.09
2018-09-15T06:44:08.670Z,84
2018-09-15T06:45:18.811Z,84.56
2018-09-15T06:46:29.206Z,84.38
2018-09-15T06:47:39.393Z,83.81
2018-09-15T06:48:49.240Z,83.62
2018-09-15T06:49:59.366Z,83.52
2018-09-15T06:51:09.222Z,83.81
2018-09-15T06:52:19.424Z,83.9
2018-09-15T06:53:29.324Z,83.9
2018-09-15T06:54:39.474Z,82.67
2018-09-15T06:55:49.638Z,82.95
2018-09-15T06:56:59.221Z,82.86
2018-09-15T06:58:09.092Z,81.9
2018-09-15T06:59:20.935Z,82
2018-09-15T07:00:30.797Z,82.04
2018-09-15T07:01:40.922Z,81.66
2018-09-15T07:02:51.058Z,81.95
2018-09-15T07:04:01.182Z,82.14
2018-09-15T07:05:11.304Z,81.18
2018-09-15T07:06:21.160Z,80.8
2018-09-15T07:07:30.741Z,80.71
2018-09-15T07:08:40.325Z,80.33
2018-09-15T07:09:50.184Z,78.71
2018-09-15T07:11:00.366Z,78.52
2018-09-15T07:12:10.497Z,78.14
2018-09-15T07:13:20.356Z,77.95
2018-09-15T07:14:29.936Z,77.76
2018-09-15T07:15:40.065Z,78.42
2018-09-15T07:16:50.193Z,78.61
2018-09-15T07:18:00.317Z,77.56
2018-09-15T07:19:10.448Z,78.17
2018-09-15T07:20:20.577Z,78.27
2018-09-15T07:21:29.886Z,77.7
2018-09-15T07:22:39.513Z,78.56
2018-09-15T07:23:49.638Z,77.42
2018-09-15T07:24:59.495Z,77.8
2018-09-15T07:26:09.075Z,77.8
2018-09-15T07:27:19.203Z,76.94
2018-09-15T07:28:29.385Z,77.89
2018-09-15T07:29:38.972Z,78.56
2018-09-15T07:30:49.105Z,78.46
2018-09-15T07:31:58.735Z,79.36
2018-09-15T07:33:09.044Z,79.36
2018-09-15T07:34:18.671Z,79.46
2018-09-15T07:35:28.250Z,78.98
2018-09-15T07:36:38.395Z,78.22
2018-09-15T07:37:48.747Z,79.36
2018-09-15T07:38:58.741Z,79.93
2018-09-15T07:40:08.376Z,79.36
2018-09-15T07:41:18.230Z,79.74
2018-09-15T07:42:28.096Z,79.27
2018-09-15T07:43:38.235Z,78.88
2018-09-15T07:44:47.655Z,79.74
2018-09-15T07:45:57.267Z,79.4
2018-09-15T07:47:07.409Z,79.3
2018-09-15T07:48:17.539Z,78.73
2018-09-15T07:49:27.393Z,78.54
2018-09-15T07:50:37.522Z,77.97
2018-09-15T07:51:47.974Z,77.3
2018-09-15T07:52:57.831Z,77.87
2018-09-15T07:54:08.143Z,77.97
2018-09-15T07:55:17.732Z,77.49
2018-09-15T07:56:27.617Z,76.35
2018-09-15T07:57:37.808Z,77.11
2018-09-15T07:58:48.030Z,76.54
2018-09-15T07:59:58.193Z,77.11
2018-09-15T08:01:07.796Z,77.49
2018-09-15T08:02:17.649Z,77.49
2018-09-15T08:03:27.834Z,77.3
2018-09-15T08:04:37.706Z,77.78
2018-09-15T08:05:47.835Z,77.69
2018-09-15T08:06:57.687Z,77.72
2018-09-15T08:08:07.543Z,77.25
2018-09-15T08:09:17.398Z,75.34
2018-09-15T08:10:27.250Z,76.01
2018-09-15T08:11:37.108Z,76.2
2018-09-15T08:12:47.244Z,75.91
2018-09-15T08:13:56.555Z,74.86
2018-09-15T08:15:06.689Z,74.57
2018-09-15T08:16:16.547Z,73.14
2018-09-15T08:17:26.400Z,73.28
2018-09-15T08:18:36.539Z,69.84
2018-09-15T08:19:46.678Z,70.42
2018-09-15T08:20:56.928Z,68.88
2018-09-15T08:22:06.509Z,65.55
2018-09-15T08:23:16.095Z,66.41
2018-09-15T08:24:25.681Z,65.17
2018-09-15T08:25:35.541Z,65.36
2018-09-15T08:26:45.401Z,65.36
2018-09-15T08:27:55.535Z,65.07
2018-09-15T08:29:05.672Z,65.07
2018-09-15T08:30:15.808Z,65.17
2018-09-15T08:31:25.661Z,67.65
2018-09-15T08:32:35.785Z,66.02
2018-09-15T08:33:45.916Z,65.1
2018-09-15T08:34:55.504Z,65.1
2018-09-15T08:36:05.360Z,65.1
2018-09-15T08:37:15.215Z,64.81
2018-09-15T08:38:25.137Z,63.96
2018-09-15T08:39:35.279Z,62.05
2018-09-15T08:40:44.858Z,63.76
2018-09-15T08:41:54.166Z,63.2
2018-09-15T08:43:04.026Z,62.81
2018-09-15T08:44:13.625Z,63.67
2018-09-15T08:45:23.765Z,63.67
2018-09-15T08:46:33.892Z,64.91
2018-09-15T08:47:43.753Z,63
2018-09-15T08:48:53.888Z,62.52
2018-09-15T08:50:04.021Z,62.43
2018-09-15T08:51:13.886Z,63.32
2018-09-15T08:52:24.036Z,62.37
2018-09-15T08:53:34.159Z,61.6
2018-09-15T08:54:43.475Z,61.79
2018-09-15T08:55:53.336Z,61.51
2018-09-15T08:57:03.542Z,61.69
2018-09-15T08:58:13.404Z,61.51
2018-09-15T08:59:23.260Z,60.33
2018-09-15T09:00:33.407Z,61.95
2018-09-15T09:01:43.273Z,61.32
2018-09-15T09:02:53.412Z,61.98
2018-09-15T09:04:03.546Z,62.55
2018-09-15T09:05:13.679Z,63.32
2018-09-15T09:06:23.816Z,62.75
2018-09-15T09:07:33.721Z,61.89
2018-09-15T09:08:43.895Z,61.6
2018-09-15T09:09:54.029Z,60.74
2018-09-15T09:11:03.627Z,61.32
2018-09-15T09:12:13.484Z,61.79
2018-09-15T09:13:23.064Z,62.84
2018-09-15T09:14:33.199Z,62.27
2018-09-15T09:15:43.340Z,61.79
2018-09-15T09:16:53.467Z,60.74
2018-09-15T09:18:02.777Z,60.27
2018-09-15T09:19:12.631Z,59.69
2018-09-15T09:20:22.215Z,60.46
2018-09-15T09:21:31.524Z,59.47
2018-09-15T09:22:41.662Z,61.86
2018-09-15T09:23:51.514Z,61.57
2018-09-15T09:25:01.164Z,61.66
2018-09-15T09:26:11.402Z,60.61
2018-09-15T09:27:21.582Z,62.37
2018-09-15T09:28:31.439Z,62.94
2018-09-15T09:29:41.299Z,61.79
2018-09-15T09:30:51.490Z,60.55
2018-09-15T09:32:01.619Z,60.55
2018-09-15T09:33:11.348Z,59.98
2018-09-15T09:34:21.713Z,58.54
2018-09-15T09:35:31.845Z,58.93
2018-09-15T09:36:41.708Z,58.73
2018-09-15T09:37:51.293Z,58.45
2018-09-15T09:39:01.421Z,58.48
2018-09-15T09:40:11.557Z,59.44
2018-09-15T09:41:21.738Z,58.29
2018-09-15T09:42:32.056Z,58.76
2018-09-15T09:43:41.653Z,57.33
2018-09-15T09:44:51.782Z,58.29
2018-09-15T09:46:01.915Z,57.9
2018-09-15T09:47:12.045Z,58.29
2018-09-15T09:48:22.530Z,57.9
2018-09-15T09:49:32.690Z,57.62
2018-09-15T09:50:42.545Z,56.38
2018-09-15T09:51:52.674Z,54.47
2018-09-15T09:53:02.809Z,54.37
2018-09-15T09:54:12.942Z,57.5
2018-09-15T09:55:22.799Z,59.31
2018-09-15T09:56:32.939Z,58.38
2018-09-15T09:57:43.073Z,57.33
2018-09-15T09:58:53.214Z,58.19
2018-09-15T10:00:03.348Z,58.29
2018-09-15T10:01:13.260Z,58.1
2018-09-15T10:02:23.904Z,57.62
2018-09-15T10:03:34.049Z,58.58
2018-09-15T10:04:43.907Z,59.24
2018-09-15T10:05:53.767Z,57.71
2018-09-15T10:07:03.996Z,58.29
2018-09-15T10:08:14.534Z,58.58
2018-09-15T10:09:24.725Z,57.81
2018-09-15T10:10:34.306Z,57.53
2018-09-15T10:11:44.173Z,57.43
2018-09-15T10:12:54.041Z,57.9
2018-09-15T10:14:03.622Z,57.81
2018-09-15T10:15:13.487Z,58.58
2018-09-15T10:16:23.817Z,58.86
2018-09-15T10:17:33.862Z,58.67
2018-09-15T10:18:43.726Z,57.62
2018-09-15T10:19:53.856Z,58
2018-09-15T10:21:03.715Z,57.9
2018-09-15T10:22:13.575Z,57.53
2018-09-15T10:23:23.709Z,57.81
2018-09-15T10:24:33.567Z,58.64
2018-09-15T10:25:43.708Z,59.22
2018-09-15T10:26:53.847Z,57.9
2018-09-15T10:28:03.705Z,59.24
2018-09-15T10:29:13.559Z,57.43
2018-09-15T10:30:23.419Z,55.77
2018-09-15T10:31:33.545Z,57.68
2018-09-15T10:32:43.679Z,59.02
2018-09-15T10:33:53.557Z,58.64
2018-09-15T10:35:03.415Z,56.25
2018-09-15T10:36:13.272Z,56.82
2018-09-15T10:37:23.125Z,58.73
2018-09-15T10:38:33.488Z,58.45
2018-09-15T10:39:43.805Z,58.64
2018-09-15T10:40:53.666Z,57.02
2018-09-15T10:42:03.535Z,57.59
2018-09-15T10:43:13.393Z,57.5
2018-09-15T10:44:23.522Z,58.93
2018-09-15T10:45:33.661Z,59.02
2018-09-15T10:46:43.664Z,58.45
2018-09-15T10:47:53.724Z,58.83
2018-09-15T10:49:03.589Z,57.87
2018-09-15T10:50:13.172Z,58.16
2018-09-15T10:51:23.031Z,58.16
2018-09-15T10:52:32.774Z,57.21
2018-09-15T10:53:42.914Z,58.07
2018-09-15T10:54:53.043Z,58.83
2018-09-15T10:56:03.175Z,58.26
2018-09-15T10:57:12.755Z,58.45
2018-09-15T10:58:22.339Z,59.02
2018-09-15T10:59:32.523Z,58.54
2018-09-15T11:00:42.814Z,58.54
2018-09-15T11:01:52.976Z,58.16
2018-09-15T11:03:02.837Z,58.54
2018-09-15T11:04:12.424Z,59.12
2018-09-15T11:05:22.279Z,58.93
2018-09-15T11:06:32.135Z,59.41
2018-09-15T11:07:42.276Z,59.98
2018-09-15T11:08:52.413Z,58.83
2018-09-15T11:10:02.544Z,57.31
2018-09-15T11:11:12.670Z,58.64
2018-09-15T11:12:22.529Z,58.36
2018-09-15T11:13:31.872Z,58.54
2018-09-15T11:14:41.685Z,58.36
2018-09-15T11:15:51.819Z,58.73
2018-09-15T11:17:01.672Z,59.12
2018-09-15T11:18:11.536Z,58.64
2018-09-15T11:19:21.124Z,59.09
2018-09-15T11:20:30.702Z,60.07
2018-09-15T11:21:40.014Z,60.27
2018-09-15T11:22:50.257Z,60.74
2018-09-15T11:24:00.928Z,59.5
2018-09-15T11:25:11.060Z,59.12
2018-09-15T11:26:21.189Z,58.54
2018-09-15T11:27:31.375Z,58.54
2018-09-15T11:28:41.748Z,58.36
2018-09-15T11:29:51.790Z,59.69
2018-09-15T11:31:01.926Z,59.59
2018-09-15T11:32:11.503Z,58.83
2018-09-15T11:33:21.684Z,58.83
2018-09-15T11:34:31.535Z,59.69
2018-09-15T11:35:41.391Z,59.59
2018-09-15T11:36:51.251Z,59.22
2018-09-15T11:38:01.382Z,59.31
2018-09-15T11:39:11.236Z,60.55
2018-09-15T11:40:21.367Z,61.03
2018-09-15T11:41:31.495Z,60.36
2018-09-15T11:42:41.401Z,59.31
2018-09-15T11:43:51.256Z,59.02
2018-09-15T11:45:01.395Z,60.55
2018-09-15T11:46:10.979Z,59.98
2018-09-15T11:47:20.566Z,59.88
2018-09-15T11:48:30.421Z,59.41
2018-09-15T11:49:40.567Z,59.22
2018-09-15T11:50:50.422Z,61.79
2018-09-15T11:52:00.009Z,60.55
2018-09-15T11:53:10.138Z,60.55
2018-09-15T11:54:19.718Z,60.55
2018-09-15T11:55:29.306Z,59.5
2018-09-15T11:56:39.437Z,59.22
2018-09-15T11:57:49.016Z,60.17
2018-09-15T11:58:58.873Z,59.98
2018-09-15T12:00:08.556Z,60.93
2018-09-15T12:01:18.550Z,60.74
2018-09-15T12:02:28.676Z,60.74
2018-09-15T12:03:38.804Z,60.93
2018-09-15T12:04:48.994Z,61.03
2018-09-15T12:05:59.154Z,60.64
2018-09-15T12:07:09.284Z,59.69
2018-09-15T12:08:19.193Z,60.64
2018-09-15T12:09:29.325Z,60.07
2018-09-15T12:10:39.188Z,61.13
2018-09-15T12:11:49.331Z,61.89
2018-09-15T12:12:59.186Z,61.89
2018-09-15T12:14:08.849Z,60.64
2018-09-15T12:15:18.592Z,59.78
2018-09-15T12:16:28.456Z,60.64
2018-09-15T12:17:38.612Z,59.98
2018-09-15T12:18:48.472Z,60.55
2018-09-15T12:19:58.605Z,59.69
2018-09-15T12:21:08.188Z,59.02
2018-09-15T12:22:18.408Z,60.46
2018-09-15T12:23:27.992Z,60.27
2018-09-15T12:24:38.123Z,60.55
2018-09-15T12:25:47.757Z,60.64
2018-09-15T12:26:57.380Z,61.41
2018-09-15T12:28:07.236Z,60.68
2018-09-15T12:29:17.364Z,60.07
2018-09-15T12:30:26.671Z,59.88
2018-09-15T12:31:36.815Z,60.3
2018-09-15T12:32:46.672Z,60.77
2018-09-15T12:33:56.525Z,60.49
2018-09-15T12:35:06.378Z,59.78
2018-09-15T12:36:16.524Z,59.12
2018-09-15T12:37:26.426Z,60.17
2018-09-15T12:38:36.562Z,59.12
2018-09-15T12:39:46.695Z,59.34
2018-09-15T12:40:56.275Z,59.22
2018-09-15T12:42:06.189Z,60.01
2018-09-15T12:43:15.501Z,60.49
2018-09-15T12:44:25.155Z,61.72
2018-09-15T12:45:35.023Z,61.25
2018-09-15T12:46:45.152Z,60.87
2018-09-15T12:47:54.459Z,60.68
2018-09-15T12:49:04.040Z,60.2
2018-09-15T12:50:13.896Z,60.87
2018-09-15T12:51:23.215Z,60.68
2018-09-15T12:52:33.344Z,59.81
2018-09-15T12:53:43.481Z,60.2
2018-09-15T12:54:53.164Z,61.16
2018-09-15T12:56:03.018Z,59.98
2018-09-15T12:57:12.604Z,61.51
2018-09-15T12:58:22.740Z,61.79
2018-09-15T12:59:32.048Z,61.41
2018-09-15T13:00:41.907Z,61.32
2018-09-15T13:01:51.770Z,60.55
2018-09-15T13:03:01.907Z,59.59
2018-09-15T13:04:11.769Z,59.31
2018-09-15T13:05:21.896Z,59.98
2018-09-15T13:06:32.188Z,61.51
2018-09-15T13:07:42.242Z,60.55
2018-09-15T13:08:52.094Z,60.55
2018-09-15T13:10:02.228Z,61.03
2018-09-15T13:11:11.811Z,60.64
2018-09-15T13:12:21.668Z,60.64
2018-09-15T13:13:31.250Z,60.36
2018-09-15T13:14:41.110Z,60.36
2018-09-15T13:15:50.697Z,60.74
2018-09-15T13:17:00.829Z,61.32
2018-09-15T13:18:10.973Z,61.6
2018-09-15T13:19:20.830Z,61.89
2018-09-15T13:20:30.684Z,61.13
2018-09-15T13:21:40.557Z,61.41
2018-09-15T13:22:50.413Z,61.41
2018-09-15T13:24:00.262Z,61.79
2018-09-15T13:25:10.117Z,61.98
2018-09-15T13:26:19.703Z,61.51
2018-09-15T13:27:29.284Z,61.41
2018-09-15T13:28:38.896Z,61.41
2018-09-15T13:29:49.191Z,62.55
2018-09-15T13:30:59.879Z,61.89
2018-09-15T13:32:09.752Z,61.79
2018-09-15T13:33:19.881Z,61.69
2018-09-15T13:34:30.016Z,61.69
2018-09-15T13:35:40.152Z,60.84
2018-09-15T13:36:50.283Z,61.32
2018-09-15T13:38:00.636Z,61.89
2018-09-15T13:39:10.579Z,62.18
2018-09-15T13:40:20.437Z,62.18
2018-09-15T13:41:30.583Z,62.84
2018-09-15T13:42:40.713Z,62.94
2018-09-15T13:43:50.575Z,62.65
2018-09-15T13:45:00.435Z,61.98
2018-09-15T13:46:10.575Z,62.65
2018-09-15T13:47:20.710Z,63.03
2018-09-15T13:48:30.842Z,61.98
2018-09-15T13:49:40.703Z,62.08
2018-09-15T13:50:50.843Z,62.08
2018-09-15T13:52:00.969Z,61.69
2018-09-15T13:53:11.189Z,62.75
2018-09-15T13:54:20.560Z,62.08
2018-09-15T13:55:30.141Z,61.98
2018-09-15T13:56:39.734Z,61.79
2018-09-15T13:57:49.045Z,61.98
2018-09-15T13:58:59.332Z,62.55
2018-09-15T14:00:09.366Z,61.98
2018-09-15T14:01:19.496Z,61.98
2018-09-15T14:02:29.623Z,62.94
2018-09-15T14:03:39.208Z,62.94
2018-09-15T14:04:49.310Z,62.18
2018-09-15T14:05:59.504Z,62.27
2018-09-15T14:07:09.087Z,61.98
2018-09-15T14:08:18.954Z,62.65
2018-09-15T14:09:28.538Z,61.98
2018-09-15T14:10:49.447Z,61.89
2018-09-15T14:11:59.266Z,62.37
2018-09-15T14:13:09.403Z,63.7
2018-09-15T14:14:19.532Z,62.94
2018-09-15T14:15:29.662Z,63.51
2018-09-15T14:16:39.573Z,62.94
2018-09-15T14:17:49.855Z,63.03
2018-09-15T14:18:59.986Z,62.75
2018-09-15T14:20:09.573Z,62.75
2018-09-15T14:21:19.703Z,62.94
2018-09-15T14:22:29.841Z,63.86
2018-09-15T14:23:39.706Z,62.75
2018-09-15T14:24:49.835Z,63.03
2018-09-15T14:25:59.971Z,62.94
2018-09-15T14:27:09.566Z,62.27
2018-09-15T14:28:19.799Z,62.08
2018-09-15T14:29:30.115Z,62.18
2018-09-15T14:30:39.970Z,62.91
2018-09-15T14:31:50.103Z,62.46
2018-09-15T14:33:00.230Z,62.24
2018-09-15T14:34:10.368Z,61.95
2018-09-15T14:35:19.946Z,62.43
2018-09-15T14:36:29.809Z,62.18
2018-09-15T14:37:39.933Z,62.05
2018-09-15T14:38:49.957Z,62.62
2018-09-15T14:40:00.273Z,62.24
2018-09-15T14:41:09.578Z,62.62
2018-09-15T14:42:19.773Z,62.24
2018-09-15T14:43:29.902Z,62.24
2018-09-15T14:44:39.771Z,62.81
2018-09-15T14:45:49.916Z,62.52
2018-09-15T14:47:00.047Z,62.81
2018-09-15T14:48:09.827Z,62.94
2018-09-15T14:49:20.160Z,62.15
2018-09-15T14:50:30.014Z,60.93
2018-09-15T14:51:39.941Z,62.81
2018-09-15T14:52:49.794Z,61.98
2018-09-15T14:53:59.664Z,61.6
2018-09-15T14:55:09.310Z,61.79
2018-09-15T14:56:19.816Z,61.98
2018-09-15T14:57:29.868Z,62.27
2018-09-15T14:58:39.175Z,61.98
2018-09-15T14:59:48.762Z,62.65
2018-09-15T15:00:58.896Z,62.18
2018-09-15T15:02:08.474Z,61.69
2018-09-15T15:03:17.777Z,60.84
2018-09-15T15:04:27.636Z,61.13
2018-09-15T15:05:37.766Z,61.79